sensor_id;sensor_type;location;lat;lon;timestamp;pressure;altitude;pressure_sealevel;temperature;humidity
71948;BME280;63257;55.082;38.772;2023-04-28T00:00:46;99470.41;;;11.75;71.51
71948;BME280;63257;55.082;38.772;2023-04-28T00:03:12;99471.34;;;11.74;71.69
71948;BME280;63257;55.082;38.772;2023-04-28T00:05:38;99471.97;;;11.77;71.51
71948;BME280;63257;55.082;38.772;2023-04-28T00:08:04;99464.56;;;11.69;72.15
71948;BME280;63257;55.082;38.772;2023-04-28T00:10:30;99464.34;;;11.73;71.86
71948;BME280;63257;55.082;38.772;2023-04-28T00:12:56;99470.41;;;11.75;71.98
71948;BME280;63257;55.082;38.772;2023-04-28T00:15:22;99462.53;;;11.73;71.80
71948;BME280;63257;55.082;38.772;2023-04-28T00:17:48;99449.06;;;11.63;72.10
71948;BME280;63257;55.082;38.772;2023-04-28T00:20:13;99459.16;;;11.71;71.58
71948;BME280;63257;55.082;38.772;2023-04-28T00:22:39;99449.72;;;11.67;71.79
71948;BME280;63257;55.082;38.772;2023-04-28T00:25:06;99458.31;;;11.70;72.07
71948;BME280;63257;55.082;38.772;2023-04-28T00:27:33;99452.38;;;11.67;71.95
71948;BME280;63257;55.082;38.772;2023-04-28T00:29:59;99448.44;;;11.60;72.06
71948;BME280;63257;55.082;38.772;2023-04-28T00:32:25;99443.78;;;11.63;72.13
71948;BME280;63257;55.082;38.772;2023-04-28T00:34:51;99438.59;;;11.62;72.10
71948;BME280;63257;55.082;38.772;2023-04-28T00:37:18;99449.50;;;11.57;71.97
71948;BME280;63257;55.082;38.772;2023-04-28T00:39:44;99446.28;;;11.52;72.32
71948;BME280;63257;55.082;38.772;2023-04-28T00:42:13;99449.03;;;11.50;72.44
71948;BME280;63257;55.082;38.772;2023-04-28T00:44:40;99441.06;;;11.37;72.74
71948;BME280;63257;55.082;38.772;2023-04-28T00:47:07;99445.38;;;11.38;72.68
71948;BME280;63257;55.082;38.772;2023-04-28T00:49:35;99453.13;;;11.42;72.72
71948;BME280;63257;55.082;38.772;2023-04-28T00:52:04;99455.03;;;11.40;73.03
71948;BME280;63257;55.082;38.772;2023-04-28T00:54:32;99402.00;;;11.01;72.90
71948;BME280;63257;55.082;38.772;2023-04-28T00:56:58;99446.84;;;11.30;73.00
71948;BME280;63257;55.082;38.772;2023-04-28T00:59:24;99447.69;;;11.30;73.26
71948;BME280;63257;55.082;38.772;2023-04-28T01:01:50;99438.34;;;11.25;73.30
71948;BME280;63257;55.082;38.772;2023-04-28T01:04:19;99426.59;;;11.16;73.61
71948;BME280;63257;55.082;38.772;2023-04-28T01:06:50;99427.63;;;11.13;73.48
71948;BME280;63257;55.082;38.772;2023-04-28T01:09:17;99449.22;;;11.20;73.74
71948;BME280;63257;55.082;38.772;2023-04-28T01:11:43;99433.66;;;11.15;73.89
71948;BME280;63257;55.082;38.772;2023-04-28T01:14:13;99444.16;;;11.17;73.89
71948;BME280;63257;55.082;38.772;2023-04-28T01:16:40;99439.03;;;11.14;73.84
71948;BME280;63257;55.082;38.772;2023-04-28T01:19:14;99434.53;;;11.01;74.27
71948;BME280;63257;55.082;38.772;2023-04-28T01:21:42;99447.38;;;11.08;74.42
71948;BME280;63257;55.082;38.772;2023-04-28T01:24:28;99434.75;;;10.98;74.44
71948;BME280;63257;55.082;38.772;2023-04-28T01:26:57;99456.03;;;11.10;74.60
71948;BME280;63257;55.082;38.772;2023-04-28T01:29:23;99458.50;;;11.13;74.60
71948;BME280;63257;55.082;38.772;2023-04-28T01:31:52;99457.44;;;11.15;74.07
71948;BME280;63257;55.082;38.772;2023-04-28T01:34:18;99467.16;;;11.15;74.34
71948;BME280;63257;55.082;38.772;2023-04-28T01:36:44;99450.56;;;11.13;73.95
71948;BME280;63257;55.082;38.772;2023-04-28T01:39:10;99459.13;;;11.16;74.04
71948;BME280;63257;55.082;38.772;2023-04-28T01:41:38;99459.78;;;11.20;73.99
71948;BME280;63257;55.082;38.772;2023-04-28T01:44:04;99448.78;;;11.13;73.95
71948;BME280;63257;55.082;38.772;2023-04-28T01:46:33;99453.75;;;11.18;73.83
71948;BME280;63257;55.082;38.772;2023-04-28T01:48:59;99437.63;;;11.08;73.78
71948;BME280;63257;55.082;38.772;2023-04-28T01:51:25;99457.16;;;11.20;73.77
71948;BME280;63257;55.082;38.772;2023-04-28T01:53:52;99459.03;;;11.18;73.88
71948;BME280;63257;55.082;38.772;2023-04-28T01:56:18;99443.69;;;11.10;74.39
71948;BME280;63257;55.082;38.772;2023-04-28T01:58:44;99443.78;;;11.09;74.17
71948;BME280;63257;55.082;38.772;2023-04-28T02:01:11;99444.63;;;11.09;74.39
71948;BME280;63257;55.082;38.772;2023-04-28T02:03:37;99430.84;;;11.04;74.37
71948;BME280;63257;55.082;38.772;2023-04-28T02:06:03;99458.75;;;11.08;74.39
71948;BME280;63257;55.082;38.772;2023-04-28T02:08:29;99454.16;;;11.12;74.52
71948;BME280;63257;55.082;38.772;2023-04-28T02:10:56;99473.38;;;11.14;74.57
71948;BME280;63257;55.082;38.772;2023-04-28T02:13:23;99476.28;;;11.24;74.05
71948;BME280;63257;55.082;38.772;2023-04-28T02:15:49;99474.00;;;11.32;73.56
71948;BME280;63257;55.082;38.772;2023-04-28T02:18:15;99460.16;;;11.28;73.14
71948;BME280;63257;55.082;38.772;2023-04-28T02:20:41;99473.81;;;11.35;73.38
71948;BME280;63257;55.082;38.772;2023-04-28T02:23:07;99471.28;;;11.33;73.36
71948;BME280;63257;55.082;38.772;2023-04-28T02:25:33;99477.44;;;11.47;73.68
71948;BME280;63257;55.082;38.772;2023-04-28T02:27:59;99476.31;;;11.51;73.26
71948;BME280;63257;55.082;38.772;2023-04-28T02:30:26;99456.50;;;11.44;73.28
71948;BME280;63257;55.082;38.772;2023-04-28T02:32:53;99480.78;;;11.63;72.84
71948;BME280;63257;55.082;38.772;2023-04-28T02:35:19;99496.81;;;11.75;72.68
71948;BME280;63257;55.082;38.772;2023-04-28T02:37:45;99498.94;;;11.82;72.10
71948;BME280;63257;55.082;38.772;2023-04-28T02:40:11;99502.97;;;11.88;71.95
71948;BME280;63257;55.082;38.772;2023-04-28T02:42:37;99504.13;;;11.98;71.70
71948;BME280;63257;55.082;38.772;2023-04-28T02:45:04;99502.09;;;12.02;71.10
71948;BME280;63257;55.082;38.772;2023-04-28T02:47:32;99502.44;;;12.10;70.97
71948;BME280;63257;55.082;38.772;2023-04-28T02:49:58;99504.91;;;12.13;70.84
71948;BME280;63257;55.082;38.772;2023-04-28T02:52:25;99504.47;;;12.19;70.48
71948;BME280;63257;55.082;38.772;2023-04-28T02:54:51;99491.91;;;12.23;70.08
71948;BME280;63257;55.082;38.772;2023-04-28T02:57:19;99498.91;;;12.24;69.76
71948;BME280;63257;55.082;38.772;2023-04-28T02:59:45;99484.91;;;12.22;69.66
71948;BME280;63257;55.082;38.772;2023-04-28T03:02:11;99494.34;;;12.26;69.63
71948;BME280;63257;55.082;38.772;2023-04-28T03:04:37;99503.09;;;12.27;69.26
71948;BME280;63257;55.082;38.772;2023-04-28T03:07:03;99493.06;;;12.19;69.53
71948;BME280;63257;55.082;38.772;2023-04-28T03:09:29;99481.19;;;12.12;69.88
71948;BME280;63257;55.082;38.772;2023-04-28T03:11:55;99520.41;;;12.32;69.76
71948;BME280;63257;55.082;38.772;2023-04-28T03:14:21;99513.94;;;12.36;69.61
71948;BME280;63257;55.082;38.772;2023-04-28T03:16:47;99511.53;;;12.46;69.17
71948;BME280;63257;55.082;38.772;2023-04-28T03:19:13;99510.03;;;12.55;69.04
71948;BME280;63257;55.082;38.772;2023-04-28T03:21:39;99510.03;;;12.68;68.55
71948;BME280;63257;55.082;38.772;2023-04-28T03:24:05;99515.34;;;12.81;68.04
71948;BME280;63257;55.082;38.772;2023-04-28T03:26:31;99512.06;;;12.90;67.51
71948;BME280;63257;55.082;38.772;2023-04-28T03:28:57;99516.38;;;13.04;67.82
71948;BME280;63257;55.082;38.772;2023-04-28T03:31:23;99523.28;;;13.06;67.03
71948;BME280;63257;55.082;38.772;2023-04-28T03:33:49;99526.00;;;13.05;67.31
71948;BME280;63257;55.082;38.772;2023-04-28T03:36:16;99518.16;;;13.03;67.40
71948;BME280;63257;55.082;38.772;2023-04-28T03:38:43;99522.81;;;13.13;67.42
71948;BME280;63257;55.082;38.772;2023-04-28T03:41:09;99526.53;;;13.23;67.06
71948;BME280;63257;55.082;38.772;2023-04-28T03:43:53;99521.84;;;13.39;66.62
71948;BME280;63257;55.082;38.772;2023-04-28T03:46:33;99516.63;;;13.38;66.05
71948;BME280;63257;55.082;38.772;2023-04-28T03:49:00;99526.59;;;13.47;65.83
71948;BME280;63257;55.082;38.772;2023-04-28T03:51:28;99524.56;;;13.51;66.33
71948;BME280;63257;55.082;38.772;2023-04-28T03:53:54;99523.72;;;13.50;65.87
71948;BME280;63257;55.082;38.772;2023-04-28T03:56:20;99523.41;;;13.55;66.11
71948;BME280;63257;55.082;38.772;2023-04-28T03:58:46;99504.94;;;13.53;65.87
71948;BME280;63257;55.082;38.772;2023-04-28T04:01:12;99516.97;;;13.70;65.64
71948;BME280;63257;55.082;38.772;2023-04-28T04:03:38;99508.28;;;13.68;65.36
71948;BME280;63257;55.082;38.772;2023-04-28T04:06:04;99522.13;;;13.85;65.61
71948;BME280;63257;55.082;38.772;2023-04-28T04:08:30;99523.75;;;13.99;65.26
71948;BME280;63257;55.082;38.772;2023-04-28T04:11:02;99520.38;;;14.08;65.28
71948;BME280;63257;55.082;38.772;2023-04-28T04:13:29;99513.06;;;14.12;64.64
71948;BME280;63257;55.082;38.772;2023-04-28T04:15:55;99510.66;;;14.20;64.75
71948;BME280;63257;55.082;38.772;2023-04-28T04:18:23;99507.66;;;14.24;64.70
71948;BME280;63257;55.082;38.772;2023-04-28T04:21:08;99492.84;;;14.22;64.33
71948;BME280;63257;55.082;38.772;2023-04-28T04:23:34;99521.00;;;14.47;64.38
71948;BME280;63257;55.082;38.772;2023-04-28T04:26:00;99529.47;;;14.52;63.98
71948;BME280;63257;55.082;38.772;2023-04-28T04:28:26;99526.22;;;14.60;63.90
71948;BME280;63257;55.082;38.772;2023-04-28T04:30:52;99516.63;;;14.70;63.77
71948;BME280;63257;55.082;38.772;2023-04-28T04:33:18;99520.22;;;14.81;63.57
71948;BME280;63257;55.082;38.772;2023-04-28T04:35:44;99515.16;;;14.89;64.09
71948;BME280;63257;55.082;38.772;2023-04-28T04:38:11;99514.47;;;14.87;63.67
71948;BME280;63257;55.082;38.772;2023-04-28T04:40:37;99511.56;;;14.90;64.09
71948;BME280;63257;55.082;38.772;2023-04-28T04:43:03;99506.00;;;14.93;63.81
71948;BME280;63257;55.082;38.772;2023-04-28T04:45:36;99507.22;;;15.00;63.72
71948;BME280;63257;55.082;38.772;2023-04-28T04:48:03;99508.31;;;14.98;63.60
71948;BME280;63257;55.082;38.772;2023-04-28T04:50:29;99509.63;;;15.03;63.96
71948;BME280;63257;55.082;38.772;2023-04-28T04:52:55;99519.53;;;15.13;63.85
71948;BME280;63257;55.082;38.772;2023-04-28T04:55:23;99524.97;;;15.11;63.25
71948;BME280;63257;55.082;38.772;2023-04-28T04:57:50;99521.47;;;15.10;63.61
71948;BME280;63257;55.082;38.772;2023-04-28T05:00:31;99526.91;;;15.09;64.35
71948;BME280;63257;55.082;38.772;2023-04-28T05:02:59;99529.06;;;15.15;65.29
71948;BME280;63257;55.082;38.772;2023-04-28T05:05:24;99524.63;;;15.04;66.26
71948;BME280;63257;55.082;38.772;2023-04-28T05:08:04;99525.47;;;14.93;66.72
71948;BME280;63257;55.082;38.772;2023-04-28T05:10:30;99515.16;;;14.89;67.54
71948;BME280;63257;55.082;38.772;2023-04-28T05:12:57;99525.81;;;14.89;67.69
71948;BME280;63257;55.082;38.772;2023-04-28T05:15:23;99506.94;;;14.81;69.33
71948;BME280;63257;55.082;38.772;2023-04-28T05:18:07;99531.59;;;14.83;69.48
71948;BME280;63257;55.082;38.772;2023-04-28T05:20:36;99534.59;;;14.78;70.00
71948;BME280;63257;55.082;38.772;2023-04-28T05:23:02;99528.22;;;14.81;70.10
71948;BME280;63257;55.082;38.772;2023-04-28T05:25:28;99533.63;;;14.79;69.92
71948;BME280;63257;55.082;38.772;2023-04-28T05:27:56;99539.81;;;14.80;70.09
71948;BME280;63257;55.082;38.772;2023-04-28T05:30:23;99545.84;;;14.82;70.36
71948;BME280;63257;55.082;38.772;2023-04-28T05:32:49;99544.78;;;14.84;70.04
71948;BME280;63257;55.082;38.772;2023-04-28T05:35:15;99546.94;;;14.90;70.01
71948;BME280;63257;55.082;38.772;2023-04-28T05:37:42;99559.25;;;14.91;70.06
71948;BME280;63257;55.082;38.772;2023-04-28T05:40:09;99569.06;;;14.91;70.02
71948;BME280;63257;55.082;38.772;2023-04-28T05:42:35;99560.22;;;14.90;71.09
71948;BME280;63257;55.082;38.772;2023-04-28T05:45:01;99549.25;;;14.95;71.22
71948;BME280;63257;55.082;38.772;2023-04-28T05:47:30;99552.16;;;15.03;70.26
71948;BME280;63257;55.082;38.772;2023-04-28T05:49:56;99535.84;;;14.97;70.03
71948;BME280;63257;55.082;38.772;2023-04-28T05:52:25;99550.69;;;15.22;70.13
71948;BME280;63257;55.082;38.772;2023-04-28T05:54:52;99545.97;;;15.37;70.32
71948;BME280;63257;55.082;38.772;2023-04-28T05:57:20;99547.66;;;15.49;69.34
71948;BME280;63257;55.082;38.772;2023-04-28T05:59:47;99541.84;;;15.55;69.02
71948;BME280;63257;55.082;38.772;2023-04-28T06:02:13;99550.41;;;15.70;68.14
71948;BME280;63257;55.082;38.772;2023-04-28T06:04:39;99544.44;;;15.78;67.58
71948;BME280;63257;55.082;38.772;2023-04-28T06:07:07;99547.09;;;15.89;67.23
71948;BME280;63257;55.082;38.772;2023-04-28T06:09:33;99554.59;;;15.96;67.45
71948;BME280;63257;55.082;38.772;2023-04-28T06:11:59;99548.66;;;16.03;67.10
71948;BME280;63257;55.082;38.772;2023-04-28T06:14:25;99545.00;;;16.04;66.79
71948;BME280;63257;55.082;38.772;2023-04-28T06:16:51;99539.31;;;16.09;66.28
71948;BME280;63257;55.082;38.772;2023-04-28T06:19:17;99538.22;;;16.11;66.42
71948;BME280;63257;55.082;38.772;2023-04-28T06:21:45;99537.06;;;16.25;65.71
71948;BME280;63257;55.082;38.772;2023-04-28T06:24:12;99527.19;;;16.37;65.61
71948;BME280;63257;55.082;38.772;2023-04-28T06:26:40;99537.19;;;16.66;64.44
71948;BME280;63257;55.082;38.772;2023-04-28T06:29:08;99521.16;;;16.77;63.91
71948;BME280;63257;55.082;38.772;2023-04-28T06:31:34;99535.59;;;17.06;62.92
71948;BME280;63257;55.082;38.772;2023-04-28T06:34:00;99533.44;;;17.21;62.55
71948;BME280;63257;55.082;38.772;2023-04-28T06:36:27;99530.91;;;17.19;62.82
71948;BME280;63257;55.082;38.772;2023-04-28T06:38:53;99533.88;;;17.26;61.64
71948;BME280;63257;55.082;38.772;2023-04-28T06:41:19;99532.66;;;17.40;61.21
71948;BME280;63257;55.082;38.772;2023-04-28T06:43:48;99529.47;;;17.56;60.67
71948;BME280;63257;55.082;38.772;2023-04-28T06:46:29;99540.03;;;17.77;59.68
71948;BME280;63257;55.082;38.772;2023-04-28T06:48:55;99547.72;;;18.01;58.83
71948;BME280;63257;55.082;38.772;2023-04-28T06:51:21;99546.00;;;18.20;59.34
71948;BME280;63257;55.082;38.772;2023-04-28T06:53:48;99540.38;;;18.33;58.08
71948;BME280;63257;55.082;38.772;2023-04-28T06:56:17;99545.56;;;18.54;57.24
71948;BME280;63257;55.082;38.772;2023-04-28T06:58:43;99537.81;;;18.60;56.85
71948;BME280;63257;55.082;38.772;2023-04-28T07:01:09;99546.63;;;18.80;56.15
71948;BME280;63257;55.082;38.772;2023-04-28T07:03:35;99549.88;;;18.94;56.00
71948;BME280;63257;55.082;38.772;2023-04-28T07:06:01;99536.50;;;18.94;55.00
71948;BME280;63257;55.082;38.772;2023-04-28T07:08:28;99548.13;;;19.12;54.16
71948;BME280;63257;55.082;38.772;2023-04-28T07:10:55;99548.91;;;19.23;54.35
71948;BME280;63257;55.082;38.772;2023-04-28T07:13:21;99539.47;;;19.28;53.91
71948;BME280;63257;55.082;38.772;2023-04-28T07:15:46;99549.59;;;19.35;53.54
71948;BME280;63257;55.082;38.772;2023-04-28T07:18:13;99545.78;;;19.27;53.86
71948;BME280;63257;55.082;38.772;2023-04-28T07:20:39;99546.66;;;19.28;53.22
71948;BME280;63257;55.082;38.772;2023-04-28T07:23:05;99549.84;;;19.41;52.71
71948;BME280;63257;55.082;38.772;2023-04-28T07:25:31;99551.00;;;19.57;53.20
71948;BME280;63257;55.082;38.772;2023-04-28T07:27:56;99542.31;;;19.73;52.26
71948;BME280;63257;55.082;38.772;2023-04-28T07:30:22;99535.81;;;19.75;51.98
71948;BME280;63257;55.082;38.772;2023-04-28T07:32:48;99531.94;;;19.88;51.87
71948;BME280;63257;55.082;38.772;2023-04-28T07:35:14;99537.31;;;20.06;51.64
71948;BME280;63257;55.082;38.772;2023-04-28T07:37:40;99534.19;;;20.10;52.12
71948;BME280;63257;55.082;38.772;2023-04-28T07:40:06;99526.47;;;20.07;51.62
71948;BME280;63257;55.082;38.772;2023-04-28T07:42:32;99539.16;;;20.05;52.05
71948;BME280;63257;55.082;38.772;2023-04-28T07:44:58;99544.34;;;19.89;51.22
71948;BME280;63257;55.082;38.772;2023-04-28T07:47:24;99539.63;;;20.00;51.15
71948;BME280;63257;55.082;38.772;2023-04-28T07:49:51;99516.34;;;20.01;51.11
71948;BME280;63257;55.082;38.772;2023-04-28T07:52:17;99538.72;;;20.28;50.22
71948;BME280;63257;55.082;38.772;2023-04-28T07:54:46;99537.78;;;20.19;50.11
71948;BME280;63257;55.082;38.772;2023-04-28T07:57:12;99533.41;;;20.18;51.09
71948;BME280;63257;55.082;38.772;2023-04-28T07:59:38;99536.63;;;20.22;50.86
71948;BME280;63257;55.082;38.772;2023-04-28T08:02:04;99524.16;;;20.12;50.65
71948;BME280;63257;55.082;38.772;2023-04-28T08:04:31;99516.59;;;20.08;49.83
71948;BME280;63257;55.082;38.772;2023-04-28T08:06:58;99518.78;;;20.12;49.56
71948;BME280;63257;55.082;38.772;2023-04-28T08:09:24;99529.72;;;20.37;49.11
71948;BME280;63257;55.082;38.772;2023-04-28T08:11:50;99528.31;;;20.51;48.70
71948;BME280;63257;55.082;38.772;2023-04-28T08:14:16;99525.34;;;20.54;48.48
71948;BME280;63257;55.082;38.772;2023-04-28T08:16:42;99524.16;;;20.75;48.15
71948;BME280;63257;55.082;38.772;2023-04-28T08:19:08;99529.75;;;20.81;48.30
71948;BME280;63257;55.082;38.772;2023-04-28T08:21:34;99530.03;;;21.05;47.79
71948;BME280;63257;55.082;38.772;2023-04-28T08:24:00;99524.56;;;21.14;47.45
71948;BME280;63257;55.082;38.772;2023-04-28T08:26:26;99531.16;;;21.28;47.16
71948;BME280;63257;55.082;38.772;2023-04-28T08:28:54;99508.34;;;21.24;46.69
71948;BME280;63257;55.082;38.772;2023-04-28T08:31:20;99532.84;;;21.38;46.26
71948;BME280;63257;55.082;38.772;2023-04-28T08:33:46;99519.97;;;21.41;47.25
71948;BME280;63257;55.082;38.772;2023-04-28T08:36:16;99509.41;;;21.48;46.47
71948;BME280;63257;55.082;38.772;2023-04-28T08:38:43;99511.34;;;21.29;46.50
71948;BME280;63257;55.082;38.772;2023-04-28T08:41:19;99514.72;;;21.31;47.01
71948;BME280;63257;55.082;38.772;2023-04-28T08:43:46;99503.47;;;21.28;47.12
71948;BME280;63257;55.082;38.772;2023-04-28T08:46:13;99510.56;;;21.37;48.07
71948;BME280;63257;55.082;38.772;2023-04-28T08:48:42;99497.47;;;21.34;47.54
71948;BME280;63257;55.082;38.772;2023-04-28T08:51:14;99493.59;;;21.28;48.05
71948;BME280;63257;55.082;38.772;2023-04-28T08:53:43;99507.81;;;21.21;48.40
71948;BME280;63257;55.082;38.772;2023-04-28T08:56:09;99502.72;;;21.09;47.83
71948;BME280;63257;55.082;38.772;2023-04-28T08:58:38;99504.38;;;21.02;49.15
71948;BME280;63257;55.082;38.772;2023-04-28T09:01:04;99496.88;;;20.79;49.21
71948;BME280;63257;55.082;38.772;2023-04-28T09:03:31;99495.56;;;20.83;49.33
71948;BME280;63257;55.082;38.772;2023-04-28T09:05:58;99511.41;;;21.03;49.60
71948;BME280;63257;55.082;38.772;2023-04-28T09:08:23;99502.06;;;21.15;48.38
71948;BME280;63257;55.082;38.772;2023-04-28T09:11:05;99491.53;;;21.22;48.78
71948;BME280;63257;55.082;38.772;2023-04-28T09:13:32;99506.69;;;21.31;49.46
71948;BME280;63257;55.082;38.772;2023-04-28T09:16:00;99510.94;;;21.50;48.87
71948;BME280;63257;55.082;38.772;2023-04-28T09:18:28;99519.72;;;21.61;48.81
71948;BME280;63257;55.082;38.772;2023-04-28T09:21:08;99501.78;;;21.69;48.17
71948;BME280;63257;55.082;38.772;2023-04-28T09:23:46;99497.44;;;21.77;47.57
71948;BME280;63257;55.082;38.772;2023-04-28T09:26:12;99498.41;;;21.67;47.82
71948;BME280;63257;55.082;38.772;2023-04-28T09:28:38;99479.50;;;21.34;48.17
71948;BME280;63257;55.082;38.772;2023-04-28T09:31:04;99500.50;;;21.39;47.10
71948;BME280;63257;55.082;38.772;2023-04-28T09:33:30;99501.47;;;21.30;47.83
71948;BME280;63257;55.082;38.772;2023-04-28T09:35:56;99489.72;;;21.23;48.04
71948;BME280;63257;55.082;38.772;2023-04-28T09:38:22;99504.38;;;21.02;49.14
71948;BME280;63257;55.082;38.772;2023-04-28T09:40:56;99503.56;;;20.75;49.93
71948;BME280;63257;55.082;38.772;2023-04-28T09:46:10;99521.31;;;19.96;52.54
71948;BME280;63257;55.082;38.772;2023-04-28T09:48:37;99517.28;;;19.64;52.92
71948;BME280;63257;55.082;38.772;2023-04-28T09:51:05;99530.53;;;19.65;52.73
71948;BME280;63257;55.082;38.772;2023-04-28T09:53:32;99530.81;;;19.90;51.95
71948;BME280;63257;55.082;38.772;2023-04-28T09:56:01;99529.03;;;20.35;51.29
71948;BME280;63257;55.082;38.772;2023-04-28T09:58:30;99522.38;;;20.83;50.21
71948;BME280;63257;55.082;38.772;2023-04-28T10:01:05;99527.16;;;20.98;49.56
71948;BME280;63257;55.082;38.772;2023-04-28T10:04:01;99528.00;;;20.72;49.63
71948;BME280;63257;55.082;38.772;2023-04-28T10:06:28;99525.94;;;20.48;48.71
71948;BME280;63257;55.082;38.772;2023-04-28T10:08:59;99519.41;;;20.24;48.14
71948;BME280;63257;55.082;38.772;2023-04-28T10:11:26;99519.16;;;20.36;48.32
71948;BME280;63257;55.082;38.772;2023-04-28T10:13:53;99526.00;;;20.56;48.38
71948;BME280;63257;55.082;38.772;2023-04-28T10:20:35;99518.94;;;20.29;48.84
71948;BME280;63257;55.082;38.772;2023-04-28T10:26:02;99526.13;;;19.74;50.71
71948;BME280;63257;55.082;38.772;2023-04-28T10:28:35;99537.97;;;19.44;51.26
71948;BME280;63257;55.082;38.772;2023-04-28T10:31:11;99539.41;;;19.10;51.90
71948;BME280;63257;55.082;38.772;2023-04-28T10:33:38;99545.44;;;18.55;54.05
71948;BME280;63257;55.082;38.772;2023-04-28T10:36:05;99532.22;;;18.14;55.89
71948;BME280;63257;55.082;38.772;2023-04-28T10:38:32;99555.63;;;17.81;58.89
71948;BME280;63257;55.082;38.772;2023-04-28T10:40:58;99560.53;;;17.26;61.66
71948;BME280;63257;55.082;38.772;2023-04-28T10:43:37;99555.75;;;16.89;63.48
71948;BME280;63257;55.082;38.772;2023-04-28T10:46:05;99549.81;;;16.64;65.75
71948;BME280;63257;55.082;38.772;2023-04-28T10:56:19;99574.22;;;16.27;73.24
71948;BME280;63257;55.082;38.772;2023-04-28T10:58:47;99536.47;;;15.89;73.78
71948;BME280;63257;55.082;38.772;2023-04-28T11:03:58;99560.09;;;15.83;75.19
71948;BME280;63257;55.082;38.772;2023-04-28T11:11:38;99563.34;;;15.75;77.84
71948;BME280;63257;55.082;38.772;2023-04-28T11:17:06;99560.06;;;15.94;80.08
71948;BME280;63257;55.082;38.772;2023-04-28T11:19:44;99546.88;;;15.92;79.72
71948;BME280;63257;55.082;38.772;2023-04-28T11:25:02;99551.00;;;16.18;79.31
71948;BME280;63257;55.082;38.772;2023-04-28T11:27:32;99544.84;;;16.17;79.06
71948;BME280;63257;55.082;38.772;2023-04-28T11:29:59;99549.50;;;16.25;79.25
71948;BME280;63257;55.082;38.772;2023-04-28T11:32:31;99548.34;;;16.39;79.15
71948;BME280;63257;55.082;38.772;2023-04-28T11:34:57;99545.59;;;16.40;77.41
71948;BME280;63257;55.082;38.772;2023-04-28T11:37:24;99556.19;;;16.52;78.33
71948;BME280;63257;55.082;38.772;2023-04-28T11:39:50;99555.41;;;16.61;78.50
71948;BME280;63257;55.082;38.772;2023-04-28T11:46:01;99557.78;;;16.85;78.45
71948;BME280;63257;55.082;38.772;2023-04-28T11:52:34;99551.63;;;17.46;76.30
71948;BME280;63257;55.082;38.772;2023-04-28T11:55:00;99546.63;;;17.73;75.74
71948;BME280;63257;55.082;38.772;2023-04-28T11:57:27;99541.94;;;17.96;72.19
71948;BME280;63257;55.082;38.772;2023-04-28T12:03:20;99536.94;;;18.70;71.59
71948;BME280;63257;55.082;38.772;2023-04-28T12:05:46;99531.28;;;18.92;69.74
71948;BME280;63257;55.082;38.772;2023-04-28T12:08:12;99526.84;;;19.11;67.65
71948;BME280;63257;55.082;38.772;2023-04-28T12:10:38;99528.53;;;19.12;69.21
71948;BME280;63257;55.082;38.772;2023-04-28T12:13:15;99519.31;;;18.96;68.67
71948;BME280;63257;55.082;38.772;2023-04-28T12:15:41;99506.31;;;19.11;68.48
71948;BME280;63257;55.082;38.772;2023-04-28T12:18:10;99521.53;;;19.39;67.43
71948;BME280;63257;55.082;38.772;2023-04-28T12:20:37;99518.91;;;19.57;67.15
71948;BME280;63257;55.082;38.772;2023-04-28T12:23:04;99513.41;;;19.76;65.88
71948;BME280;63257;55.082;38.772;2023-04-28T12:25:30;99508.53;;;19.44;64.77
71948;BME280;63257;55.082;38.772;2023-04-28T12:28:05;99511.56;;;19.03;66.02
71948;BME280;63257;55.082;38.772;2023-04-28T12:30:33;99510.22;;;18.70;67.41
71948;BME280;63257;55.082;38.772;2023-04-28T12:33:01;99502.84;;;18.44;68.37
71948;BME280;63257;55.082;38.772;2023-04-28T12:35:27;99503.84;;;18.23;68.29
71948;BME280;63257;55.082;38.772;2023-04-28T12:37:54;99507.50;;;18.03;70.25
71948;BME280;63257;55.082;38.772;2023-04-28T12:48:57;99491.22;;;17.26;70.72
71948;BME280;63257;55.082;38.772;2023-04-28T12:51:23;99490.63;;;17.22;70.79
71948;BME280;63257;55.082;38.772;2023-04-28T12:53:49;99497.66;;;17.23;71.20
71948;BME280;63257;55.082;38.772;2023-04-28T12:56:15;99493.13;;;17.14;70.91
71948;BME280;63257;55.082;38.772;2023-04-28T13:02:59;99491.09;;;17.37;71.17
71948;BME280;63257;55.082;38.772;2023-04-28T13:05:25;99475.13;;;17.57;69.40
71948;BME280;63257;55.082;38.772;2023-04-28T13:07:52;99488.94;;;17.91;69.16
71948;BME280;63257;55.082;38.772;2023-04-28T13:10:18;99486.97;;;17.93;69.37
71948;BME280;63257;55.082;38.772;2023-04-28T13:12:46;99506.75;;;17.91;70.47
71948;BME280;63257;55.082;38.772;2023-04-28T13:15:12;99491.13;;;17.67;69.54
71948;BME280;63257;55.082;38.772;2023-04-28T13:17:38;99492.81;;;17.58;70.18
71948;BME280;63257;55.082;38.772;2023-04-28T13:20:05;99496.22;;;17.60;70.40
71948;BME280;63257;55.082;38.772;2023-04-28T13:22:34;99479.16;;;17.41;70.75
71948;BME280;63257;55.082;38.772;2023-04-28T13:25:00;99494.50;;;17.49;71.44
71948;BME280;63257;55.082;38.772;2023-04-28T13:27:26;99490.50;;;17.34;70.25
71948;BME280;63257;55.082;38.772;2023-04-28T13:29:55;99510.25;;;17.21;71.71
71948;BME280;63257;55.082;38.772;2023-04-28T13:32:24;99503.94;;;17.12;71.97
71948;BME280;63257;55.082;38.772;2023-04-28T13:39:09;99508.66;;;17.09;70.20
71948;BME280;63257;55.082;38.772;2023-04-28T13:41:41;99492.34;;;17.33;69.19
71948;BME280;63257;55.082;38.772;2023-04-28T13:44:07;99492.69;;;17.69;67.05
71948;BME280;63257;55.082;38.772;2023-04-28T13:46:34;99515.25;;;18.82;64.40
71948;BME280;63257;55.082;38.772;2023-04-28T13:48:59;99512.19;;;19.25;62.86
71948;BME280;63257;55.082;38.772;2023-04-28T13:51:26;99506.72;;;20.71;58.87